sensor_id;sensor_type;location;lat;lon;timestamp;pressure;altitude;pressure_sealevel;temperature;humidity
50590;BME280;36547;50.514;30.840;2023-03-23T00:00:50;99863.48;;;13.25;56.78
50590;BME280;36547;50.514;30.840;2023-03-23T00:01:53;99863.59;;;13.24;56.75
50590;BME280;36547;50.514;30.840;2023-03-23T00:02:55;99862.53;;;13.26;56.75
50590;BME280;36547;50.514;30.840;2023-03-23T00:04:00;99859.86;;;13.26;56.78
50590;BME280;36547;50.514;30.840;2023-03-23T00:05:04;99866.16;;;13.25;56.84
50590;BME280;36547;50.514;30.840;2023-03-23T00:06:08;99867.11;;;13.24;56.85
50590;BME280;36547;50.514;30.840;2023-03-23T00:07:16;99864.64;;;13.21;56.89
50590;BME280;36547;50.514;30.840;2023-03-23T00:08:20;99865.70;;;13.19;56.97
50590;BME280;36547;50.514;30.840;2023-03-23T00:09:22;99861.22;;;13.19;56.97
50590;BME280;36547;50.514;30.840;2023-03-23T00:10:35;99855.02;;;13.19;57.02
50590;BME280;36547;50.514;30.840;2023-03-23T00:11:39;99860.45;;;13.17;57.07
50590;BME280;36547;50.514;30.840;2023-03-23T00:12:41;99861.22;;;13.19;57.06
50590;BME280;36547;50.514;30.840;2023-03-23T00:13:46;99856.73;;;13.20;57.03
50590;BME280;36547;50.514;30.840;2023-03-23T00:14:48;99852.25;;;13.20;56.96
50590;BME280;36547;50.514;30.840;2023-03-23T00:15:49;99854.92;;;13.20;56.97
50590;BME280;36547;50.514;30.840;2023-03-23T00:16:51;99847.02;;;13.19;56.99
50590;BME280;36547;50.514;30.840;2023-03-23T00:18:00;99850.55;;;13.19;56.97
50590;BME280;36547;50.514;30.840;2023-03-23T00:19:04;99853.21;;;13.19;56.96
50590;BME280;36547;50.514;30.840;2023-03-23T00:20:07;99863.78;;;13.21;56.95
50590;BME280;36547;50.514;30.840;2023-03-23T00:21:09;99855.87;;;13.19;56.97
50590;BME280;36547;50.514;30.840;2023-03-23T00:22:16;99861.22;;;13.19;56.96
50590;BME280;36547;50.514;30.840;2023-03-23T00:23:19;99858.55;;;13.19;57.08
50590;BME280;36547;50.514;30.840;2023-03-23T00:24:21;99854.07;;;13.20;56.95
50590;BME280;36547;50.514;30.840;2023-03-23T00:25:22;99858.55;;;13.19;56.98
50590;BME280;36547;50.514;30.840;2023-03-23T00:26:26;99858.65;;;13.18;56.96
50590;BME280;36547;50.514;30.840;2023-03-23T00:27:28;99850.74;;;13.16;57.04
50590;BME280;36547;50.514;30.840;2023-03-23T00:28:38;99853.31;;;13.18;56.99
50590;BME280;36547;50.514;30.840;2023-03-23T00:29:42;99850.74;;;13.16;57.00
50590;BME280;36547;50.514;30.840;2023-03-23T00:30:44;99850.74;;;13.16;56.96
50590;BME280;36547;50.514;30.840;2023-03-23T00:31:46;99843.69;;;13.15;56.92
50590;BME280;36547;50.514;30.840;2023-03-23T00:32:48;99848.17;;;13.15;56.92
50590;BME280;36547;50.514;30.840;2023-03-23T00:33:55;99845.57;;;13.13;56.95
50590;BME280;36547;50.514;30.840;2023-03-23T00:34:58;99829.80;;;13.10;56.96
50590;BME280;36547;50.514;30.840;2023-03-23T00:36:02;99834.90;;;13.13;56.94
50590;BME280;36547;50.514;30.840;2023-03-23T00:37:11;99833.22;;;13.12;56.90
50590;BME280;36547;50.514;30.840;2023-03-23T00:38:13;99835.03;;;13.12;56.90
50590;BME280;36547;50.514;30.840;2023-03-23T00:39:15;99842.18;;;13.11;56.89
50590;BME280;36547;50.514;30.840;2023-03-23T00:40:23;99831.61;;;13.09;56.90
50590;BME280;36547;50.514;30.840;2023-03-23T00:41:28;99834.17;;;13.11;56.93
50590;BME280;36547;50.514;30.840;2023-03-23T00:42:30;99828.94;;;13.09;56.88
50590;BME280;36547;50.514;30.840;2023-03-23T00:43:33;99833.42;;;13.09;56.93
50590;BME280;36547;50.514;30.840;2023-03-23T00:44:37;99828.09;;;13.09;56.97
50590;BME280;36547;50.514;30.840;2023-03-23T00:45:39;99832.56;;;13.08;56.95
50590;BME280;36547;50.514;30.840;2023-03-23T00:46:41;99833.52;;;13.07;56.99
50590;BME280;36547;50.514;30.840;2023-03-23T00:47:43;99837.05;;;13.08;57.00
50590;BME280;36547;50.514;30.840;2023-03-23T00:48:45;99831.70;;;13.08;56.99
50590;BME280;36547;50.514;30.840;2023-03-23T00:49:48;99833.62;;;13.06;57.05
50590;BME280;36547;50.514;30.840;2023-03-23T00:50:52;99830.95;;;13.06;57.02
50590;BME280;36547;50.514;30.840;2023-03-23T00:51:56;99840.77;;;13.05;57.00
50590;BME280;36547;50.514;30.840;2023-03-23T00:52:59;99827.43;;;13.05;57.08
50590;BME280;36547;50.514;30.840;2023-03-23T00:54:01;99826.57;;;13.05;57.08
50590;BME280;36547;50.514;30.840;2023-03-23T00:55:03;99822.95;;;13.06;57.07
50590;BME280;36547;50.514;30.840;2023-03-23T00:56:08;99821.23;;;13.05;57.02
50590;BME280;36547;50.514;30.840;2023-03-23T00:57:10;99817.61;;;13.06;57.05
50590;BME280;36547;50.514;30.840;2023-03-23T00:58:13;99813.33;;;13.03;57.07
50590;BME280;36547;50.514;30.840;2023-03-23T00:59:21;99819.52;;;13.04;57.04
50590;BME280;36547;50.514;30.840;2023-03-23T01:00:25;99815.14;;;13.03;57.00
50590;BME280;36547;50.514;30.840;2023-03-23T01:01:29;99809.05;;;13.01;56.99
50590;BME280;36547;50.514;30.840;2023-03-23T01:02:32;99810.97;;;12.99;57.00
50590;BME280;36547;50.514;30.840;2023-03-23T01:03:38;99807.58;;;12.97;56.99
50590;BME280;36547;50.514;30.840;2023-03-23T01:04:39;99809.28;;;12.98;57.05
50590;BME280;36547;50.514;30.840;2023-03-23T01:05:42;99804.91;;;12.97;57.05
50590;BME280;36547;50.514;30.840;2023-03-23T01:06:48;99808.42;;;12.97;57.02
50590;BME280;36547;50.514;30.840;2023-03-23T01:07:53;99801.38;;;12.96;57.06
50590;BME280;36547;50.514;30.840;2023-03-23T01:08:54;99804.15;;;12.95;57.02
50590;BME280;36547;50.514;30.840;2023-03-23T01:09:58;99805.86;;;12.96;57.06
50590;BME280;36547;50.514;30.840;2023-03-23T01:11:08;99799.77;;;12.94;57.07
50590;BME280;36547;50.514;30.840;2023-03-23T01:12:11;99804.15;;;12.95;57.11
50590;BME280;36547;50.514;30.840;2023-03-23T01:13:15;99799.02;;;12.92;57.11
50590;BME280;36547;50.514;30.840;2023-03-23T01:14:19;99799.87;;;12.92;57.11
50590;BME280;36547;50.514;30.840;2023-03-23T01:15:23;99805.20;;;12.92;57.10
50590;BME280;36547;50.514;30.840;2023-03-23T01:16:25;99804.55;;;12.89;57.14
50590;BME280;36547;50.514;30.840;2023-03-23T01:17:29;99802.63;;;12.91;57.13
50590;BME280;36547;50.514;30.840;2023-03-23T01:18:30;99802.63;;;12.91;57.11
50590;BME280;36547;50.514;30.840;2023-03-23T01:19:34;99807.11;;;12.90;57.14
50590;BME280;36547;50.514;30.840;2023-03-23T01:20:37;99801.78;;;12.90;57.13
50590;BME280;36547;50.514;30.840;2023-03-23T01:21:39;99800.92;;;12.90;57.07
50590;BME280;36547;50.514;30.840;2023-03-23T01:22:42;99802.83;;;12.88;57.15
50590;BME280;36547;50.514;30.840;2023-03-23T01:23:44;99795.79;;;12.87;57.10
50590;BME280;36547;50.514;30.840;2023-03-23T01:24:46;99799.21;;;12.89;57.08
50590;BME280;36547;50.514;30.840;2023-03-23T01:25:48;99799.41;;;12.86;57.09
50590;BME280;36547;50.514;30.840;2023-03-23T01:26:50;99788.74;;;12.86;57.00
50590;BME280;36547;50.514;30.840;2023-03-23T01:27:52;99794.08;;;12.86;57.01
50590;BME280;36547;50.514;30.840;2023-03-23T01:28:55;99788.74;;;12.86;57.02
50590;BME280;36547;50.514;30.840;2023-03-23T01:29:57;99790.55;;;12.85;56.97
50590;BME280;36547;50.514;30.840;2023-03-23T01:31:01;99794.17;;;12.84;56.96
50590;BME280;36547;50.514;30.840;2023-03-23T01:32:04;99787.03;;;12.85;56.91
50590;BME280;36547;50.514;30.840;2023-03-23T01:33:06;99793.35;;;12.84;56.97
50590;BME280;36547;50.514;30.840;2023-03-23T01:34:08;99790.69;;;12.84;56.94
50590;BME280;36547;50.514;30.840;2023-03-23T01:35:12;99790.69;;;12.84;56.84
50590;BME280;36547;50.514;30.840;2023-03-23T01:36:21;99786.30;;;12.83;56.88
50590;BME280;36547;50.514;30.840;2023-03-23T01:37:27;99782.78;;;12.82;56.91
50590;BME280;36547;50.514;30.840;2023-03-23T01:38:34;99789.07;;;12.81;56.94
50590;BME280;36547;50.514;30.840;2023-03-23T01:39:44;99783.84;;;12.80;56.98
50590;BME280;36547;50.514;30.840;2023-03-23T01:40:47;99780.41;;;12.78;57.00
50590;BME280;36547;50.514;30.840;2023-03-23T01:42:01;99785.75;;;12.78;56.97
50590;BME280;36547;50.514;30.840;2023-03-23T01:43:15;99791.08;;;12.78;57.03
50590;BME280;36547;50.514;30.840;2023-03-23T01:45:29;99794.80;;;12.75;56.95
50590;BME280;36547;50.514;30.840;2023-03-23T01:46:41;99795.66;;;12.75;56.88
50590;BME280;36547;50.514;30.840;2023-03-23T01:50:16;99788.61;;;12.74;56.92
50590;BME280;36547;50.514;30.840;2023-03-23T01:51:22;99793.19;;;12.72;56.95
50590;BME280;36547;50.514;30.840;2023-03-23T01:52:28;99802.99;;;12.72;56.97
50590;BME280;36547;50.514;30.840;2023-03-23T01:53:47;99796.91;;;12.70;57.01
50590;BME280;36547;50.514;30.840;2023-03-23T01:54:53;99801.19;;;12.72;57.01
50590;BME280;36547;50.514;30.840;2023-03-23T01:55:59;99803.85;;;12.72;56.98
50590;BME280;36547;50.514;30.840;2023-03-23T01:57:12;99804.80;;;12.71;56.97
50590;BME280;36547;50.514;30.840;2023-03-23T01:58:19;99800.33;;;12.72;56.94
50590;BME280;36547;50.514;30.840;2023-03-23T01:59:28;99802.14;;;12.71;56.97
50590;BME280;36547;50.514;30.840;2023-03-23T02:00:38;99800.42;;;12.70;56.95
50590;BME280;36547;50.514;30.840;2023-03-23T02:01:53;99803.22;;;12.69;56.99
50590;BME280;36547;50.514;30.840;2023-03-23T02:03:04;99800.56;;;12.69;56.99
50590;BME280;36547;50.514;30.840;2023-03-23T02:04:09;99804.08;;;12.69;57.05
50590;BME280;36547;50.514;30.840;2023-03-23T02:05:24;99793.41;;;12.69;57.02
50590;BME280;36547;50.514;30.840;2023-03-23T02:06:27;99805.98;;;12.67;56.99
50590;BME280;36547;50.514;30.840;2023-03-23T02:07:46;99801.51;;;12.68;56.95
50590;BME280;36547;50.514;30.840;2023-03-23T02:08:53;99803.22;;;12.69;56.98
50590;BME280;36547;50.514;30.840;2023-03-23T02:09:57;99798.94;;;12.66;56.98
50590;BME280;36547;50.514;30.840;2023-03-23T02:11:14;99794.47;;;12.67;57.04
50590;BME280;36547;50.514;30.840;2023-03-23T02:12:21;99804.27;;;12.66;57.08
50590;BME280;36547;50.514;30.840;2023-03-23T02:13:27;99797.98;;;12.67;57.06
50590;BME280;36547;50.514;30.840;2023-03-23T02:14:33;99804.27;;;12.66;57.10
50590;BME280;36547;50.514;30.840;2023-03-23T02:15:43;99799.80;;;12.67;57.07
50590;BME280;36547;50.514;30.840;2023-03-23T02:17:15;99793.80;;;12.63;57.18
50590;BME280;36547;50.514;30.840;2023-03-23T02:23:12;99797.98;;;12.67;57.17
50590;BME280;36547;50.514;30.840;2023-03-23T02:27:14;99796.28;;;12.66;57.22
50590;BME280;36547;50.514;30.840;2023-03-23T02:31:05;99799.90;;;12.65;57.16
50590;BME280;36547;50.514;30.840;2023-03-23T02:34:58;99808.84;;;12.64;57.17
50590;BME280;36547;50.514;30.840;2023-03-23T02:37:21;99795.52;;;12.64;57.05
50590;BME280;36547;50.514;30.840;2023-03-23T02:38:30;99806.19;;;12.64;57.14
50590;BME280;36547;50.514;30.840;2023-03-23T02:39:32;99790.38;;;12.61;57.13
50590;BME280;36547;50.514;30.840;2023-03-23T02:40:49;99793.91;;;12.62;57.17
50590;BME280;36547;50.514;30.840;2023-03-23T02:42:02;99802.76;;;12.62;57.14
50590;BME280;36547;50.514;30.840;2023-03-23T02:43:02;99797.42;;;12.62;57.19
50590;BME280;36547;50.514;30.840;2023-03-23T02:44:07;99799.99;;;12.64;57.07
50590;BME280;36547;50.514;30.840;2023-03-23T02:45:13;99795.52;;;12.64;57.12
50590;BME280;36547;50.514;30.840;2023-03-23T02:46:16;99793.80;;;12.63;57.17
50590;BME280;36547;50.514;30.840;2023-03-23T02:47:21;99807.99;;;12.64;57.06
50590;BME280;36547;50.514;30.840;2023-03-23T02:48:27;99800.84;;;12.64;57.04
50590;BME280;36547;50.514;30.840;2023-03-23T02:49:32;99812.38;;;12.65;56.96
50590;BME280;36547;50.514;30.840;2023-03-23T02:50:36;99797.23;;;12.65;56.95
50590;BME280;36547;50.514;30.840;2023-03-23T02:51:41;99796.38;;;12.65;56.91
50590;BME280;36547;50.514;30.840;2023-03-23T02:52:46;99800.84;;;12.64;56.95
50590;BME280;36547;50.514;30.840;2023-03-23T02:53:51;99791.14;;;12.63;56.92
50590;BME280;36547;50.514;30.840;2023-03-23T02:54:56;99794.56;;;12.65;56.90
50590;BME280;36547;50.514;30.840;2023-03-23T02:55:59;99788.37;;;12.65;56.88
50590;BME280;36547;50.514;30.840;2023-03-23T02:57:05;99795.52;;;12.64;56.85
50590;BME280;36547;50.514;30.840;2023-03-23T02:58:11;99792.95;;;12.63;56.92
50590;BME280;36547;50.514;30.840;2023-03-23T02:59:13;99795.52;;;12.64;56.87
50590;BME280;36547;50.514;30.840;2023-03-23T03:00:16;99798.94;;;12.66;56.80
50590;BME280;36547;50.514;30.840;2023-03-23T03:02:35;99793.70;;;12.65;56.76
50590;BME280;36547;50.514;30.840;2023-03-23T03:03:37;99791.90;;;12.65;56.71
50590;BME280;36547;50.514;30.840;2023-03-23T03:04:41;99788.28;;;12.66;56.69
50590;BME280;36547;50.514;30.840;2023-03-23T03:08:33;99796.28;;;12.66;56.61
50590;BME280;36547;50.514;30.840;2023-03-23T03:09:56;99793.61;;;12.66;56.59
50590;BME280;36547;50.514;30.840;2023-03-23T03:11:04;99798.94;;;12.66;56.63
50590;BME280;36547;50.514;30.840;2023-03-23T03:12:28;99796.08;;;12.69;56.52
50590;BME280;36547;50.514;30.840;2023-03-23T03:15:01;99795.32;;;12.67;56.50
50590;BME280;36547;50.514;30.840;2023-03-23T03:16:24;99800.75;;;12.66;56.54
50590;BME280;36547;50.514;30.840;2023-03-23T03:17:29;99796.18;;;12.68;56.57
50590;BME280;36547;50.514;30.840;2023-03-23T03:18:39;99799.70;;;12.68;56.46
50590;BME280;36547;50.514;30.840;2023-03-23T03:19:40;99795.32;;;12.67;56.43
50590;BME280;36547;50.514;30.840;2023-03-23T03:20:46;99798.94;;;12.66;56.48
50590;BME280;36547;50.514;30.840;2023-03-23T03:21:50;99799.90;;;12.65;56.58
50590;BME280;36547;50.514;30.840;2023-03-23T03:22:56;99801.70;;;12.65;56.63
50590;BME280;36547;50.514;30.840;2023-03-23T03:24:01;99799.99;;;12.64;56.61
50590;BME280;36547;50.514;30.840;2023-03-23T03:25:05;99807.23;;;12.62;56.64
50590;BME280;36547;50.514;30.840;2023-03-23T03:26:11;99800.19;;;12.61;56.66
50590;BME280;36547;50.514;30.840;2023-03-23T03:27:20;99810.00;;;12.60;56.70
50590;BME280;36547;50.514;30.840;2023-03-23T03:28:25;99805.62;;;12.59;56.68
50590;BME280;36547;50.514;30.840;2023-03-23T03:29:34;99802.95;;;12.59;56.74
50590;BME280;36547;50.514;30.840;2023-03-23T03:30:38;99802.95;;;12.59;56.71
50590;BME280;36547;50.514;30.840;2023-03-23T03:31:41;99808.28;;;12.59;56.72
50590;BME280;36547;50.514;30.840;2023-03-23T03:32:50;99807.33;;;12.60;56.72
50590;BME280;36547;50.514;30.840;2023-03-23T03:33:49;99804.66;;;12.60;56.63
50590;BME280;36547;50.514;30.840;2023-03-23T03:34:51;99805.52;;;12.61;56.64
50590;BME280;36547;50.514;30.840;2023-03-23T03:35:58;99801.05;;;12.61;56.58
50590;BME280;36547;50.514;30.840;2023-03-23T03:37:01;99792.09;;;12.62;56.55
50590;BME280;36547;50.514;30.840;2023-03-23T03:38:08;99793.34;;;12.57;56.53
50590;BME280;36547;50.514;30.840;2023-03-23T03:39:12;99804.86;;;12.57;56.58
50590;BME280;36547;50.514;30.840;2023-03-23T03:40:17;99798.58;;;12.58;56.56
50590;BME280;36547;50.514;30.840;2023-03-23T03:41:20;99788.01;;;12.57;56.58
50590;BME280;36547;50.514;30.840;2023-03-23T03:42:22;99789.72;;;12.58;56.55
50590;BME280;36547;50.514;30.840;2023-03-23T03:43:25;99787.91;;;12.58;56.46
50590;BME280;36547;50.514;30.840;2023-03-23T03:44:27;99784.39;;;12.58;56.50
50590;BME280;36547;50.514;30.840;2023-03-23T03:45:31;99791.43;;;12.59;56.41
50590;BME280;36547;50.514;30.840;2023-03-23T03:46:34;99796.01;;;12.57;56.45
50590;BME280;36547;50.514;30.840;2023-03-23T03:47:36;99784.29;;;12.59;56.46
50590;BME280;36547;50.514;30.840;2023-03-23T03:48:38;99780.77;;;12.59;56.46
50590;BME280;36547;50.514;30.840;2023-03-23T03:49:40;99783.53;;;12.57;56.38
50590;BME280;36547;50.514;30.840;2023-03-23T03:50:42;99779.91;;;12.58;56.36
50590;BME280;36547;50.514;30.840;2023-03-23T03:51:44;99780.77;;;12.59;56.32
50590;BME280;36547;50.514;30.840;2023-03-23T03:52:48;99777.34;;;12.57;56.37
50590;BME280;36547;50.514;30.840;2023-03-23T03:53:49;99772.97;;;12.56;56.41
50590;BME280;36547;50.514;30.840;2023-03-23T03:54:51;99780.11;;;12.55;56.38
50590;BME280;36547;50.514;30.840;2023-03-23T03:55:53;99783.77;;;12.54;56.41
50590;BME280;36547;50.514;30.840;2023-03-23T03:56:54;99778.47;;;12.67;61.56
50590;BME280;36547;50.514;30.840;2023-03-23T03:58:11;99776.43;;;12.70;62.22
50590;BME280;36547;50.514;30.840;2023-03-23T03:59:33;99777.19;;;12.72;60.79
50590;BME280;36547;50.514;30.840;2023-03-23T04:00:53;99784.79;;;12.79;59.66
50590;BME280;36547;50.514;30.840;2023-03-23T04:01:57;99784.70;;;12.80;58.55
50590;BME280;36547;50.514;30.840;2023-03-23T04:02:59;99783.08;;;12.78;58.04
50590;BME280;36547;50.514;30.840;2023-03-23T04:04:03;99780.41;;;12.78;57.68
50590;BME280;36547;50.514;30.840;2023-03-23T04:05:07;99781.47;;;12.75;57.42
50590;BME280;36547;50.514;30.840;2023-03-23T04:06:10;99782.33;;;12.75;57.14
50590;BME280;36547;50.514;30.840;2023-03-23T04:07:12;99782.42;;;12.74;56.95
50590;BME280;36547;50.514;30.840;2023-03-23T04:08:14;99785.95;;;12.74;56.79
50590;BME280;36547;50.514;30.840;2023-03-23T04:09:17;99787.85;;;12.72;56.62
50590;BME280;36547;50.514;30.840;2023-03-23T04:10:20;99785.28;;;12.71;56.50
50590;BME280;36547;50.514;30.840;2023-03-23T04:11:21;99788.08;;;12.69;56.59
50590;BME280;36547;50.514;30.840;2023-03-23T04:12:24;99793.41;;;12.69;56.48
50590;BME280;36547;50.514;30.840;2023-03-23T04:13:31;99793.61;;;12.66;56.47
50590;BME280;36547;50.514;30.840;2023-03-23T04:14:41;99792.75;;;12.66;56.45
50590;BME280;36547;50.514;30.840;2023-03-23T04:15:44;99787.72;;;12.61;56.50
50590;BME280;36547;50.514;30.840;2023-03-23T04:16:48;99790.19;;;12.64;56.49
50590;BME280;36547;50.514;30.840;2023-03-23T04:17:49;99790.28;;;12.63;56.46
50590;BME280;36547;50.514;30.840;2023-03-23T04:18:51;99792.09;;;12.62;56.47
50590;BME280;36547;50.514;30.840;2023-03-23T04:19:54;99790.48;;;12.60;56.46
50590;BME280;36547;50.514;30.840;2023-03-23T04:20:56;99789.42;;;12.62;56.42
50590;BME280;36547;50.514;30.840;2023-03-23T04:21:59;99792.19;;;12.61;56.47
50590;BME280;36547;50.514;30.840;2023-03-23T04:23:01;99790.58;;;12.58;56.49
50590;BME280;36547;50.514;30.840;2023-03-23T04:24:03;99797.95;;;12.55;56.55
50590;BME280;36547;50.514;30.840;2023-03-23T04:25:05;99794.42;;;12.54;56.60
50590;BME280;36547;50.514;30.840;2023-03-23T04:26:09;99801.44;;;12.55;56.59
50590;BME280;36547;50.514;30.840;2023-03-23T04:27:13;99792.71;;;12.53;56.61
50590;BME280;36547;50.514;30.840;2023-03-23T04:28:15;99794.62;;;12.51;56.70
50590;BME280;36547;50.514;30.840;2023-03-23T04:29:20;99792.91;;;12.50;56.85
50590;BME280;36547;50.514;30.840;2023-03-23T04:30:28;99796.52;;;12.49;56.93
50590;BME280;36547;50.514;30.840;2023-03-23T04:31:37;99792.14;;;12.48;56.96
50590;BME280;36547;50.514;30.840;2023-03-23T04:32:49;99791.00;;;12.52;56.94
50590;BME280;36547;50.514;30.840;2023-03-23T04:33:52;99793.56;;;12.54;57.03
50590;BME280;36547;50.514;30.840;2023-03-23T04:34:56;99791.62;;;12.56;57.00
50590;BME280;36547;50.514;30.840;2023-03-23T04:36:00;99793.34;;;12.57;56.97
50590;BME280;36547;50.514;30.840;2023-03-23T04:37:16;99793.05;;;12.61;57.02
50590;BME280;36547;50.514;30.840;2023-03-23T04:38:19;99796.28;;;12.66;57.08
50590;BME280;36547;50.514;30.840;2023-03-23T04:39:23;99798.52;;;12.72;56.95
50590;BME280;36547;50.514;30.840;2023-03-23T04:40:26;99791.08;;;12.78;57.01
50590;BME280;36547;50.514;30.840;2023-03-23T04:41:30;99795.16;;;12.83;57.02
50590;BME280;36547;50.514;30.840;2023-03-23T04:42:33;99792.16;;;12.88;56.84
50590;BME280;36547;50.514;30.840;2023-03-23T04:43:52;99790.91;;;12.93;56.80
50590;BME280;36547;50.514;30.840;2023-03-23T04:44:57;99787.71;;;13.01;56.61
50590;BME280;36547;50.514;30.840;2023-03-23T04:46:01;99787.31;;;13.07;56.68
50590;BME280;36547;50.514;30.840;2023-03-23T04:47:03;99787.01;;;13.12;56.67
50590;BME280;36547;50.514;30.840;2023-03-23T04:48:07;99785.64;;;13.19;56.40
50590;BME280;36547;50.514;30.840;2023-03-23T04:49:15;99784.38;;;13.24;56.45
50590;BME280;36547;50.514;30.840;2023-03-23T04:50:20;99784.70;;;13.32;56.06
50590;BME280;36547;50.514;30.840;2023-03-23T04:51:22;99785.25;;;13.37;55.86
50590;BME280;36547;50.514;30.840;2023-03-23T04:52:26;99781.41;;;13.41;55.72
50590;BME280;36547;50.514;30.840;2023-03-23T04:53:30;99783.74;;;13.46;55.62
50590;BME280;36547;50.514;30.840;2023-03-23T04:54:33;99787.16;;;13.48;55.43
50590;BME280;36547;50.514;30.840;2023-03-23T04:55:36;99787.06;;;13.50;55.26
50590;BME280;36547;50.514;30.840;2023-03-23T04:56:38;99785.14;;;13.52;55.05
50590;BME280;36547;50.514;30.840;2023-03-23T04:57:42;99785.14;;;13.52;54.87
50590;BME280;36547;50.514;30.840;2023-03-23T04:58:57;99786.10;;;13.51;54.78
50590;BME280;36547;50.514;30.840;2023-03-23T05:00:09;99781.52;;;13.53;54.72
50590;BME280;36547;50.514;30.840;2023-03-23T05:01:13;99786.10;;;13.51;54.59
50590;BME280;36547;50.514;30.840;2023-03-23T05:02:17;99784.39;;;13.50;54.50
50590;BME280;36547;50.514;30.840;2023-03-23T05:03:21;99792.40;;;13.50;54.47
50590;BME280;36547;50.514;30.840;2023-03-23T05:04:24;99786.30;;;13.48;54.49
50590;BME280;36547;50.514;30.840;2023-03-23T05:05:34;99789.18;;;13.44;54.58
50590;BME280;36547;50.514;30.840;2023-03-23T05:06:38;99788.43;;;13.42;54.62
50590;BME280;36547;50.514;30.840;2023-03-23T05:07:42;99789.42;;;13.41;54.77
50590;BME280;36547;50.514;30.840;2023-03-23T05:08:44;99791.10;;;13.42;54.67
50590;BME280;36547;50.514;30.840;2023-03-23T05:09:47;99790.14;;;13.43;54.83
50590;BME280;36547;50.514;30.840;2023-03-23T05:10:55;99788.23;;;13.45;54.92
50590;BME280;36547;50.514;30.840;2023-03-23T05:12:07;99790.79;;;13.47;54.96
50590;BME280;36547;50.514;30.840;2023-03-23T05:13:12;99793.36;;;13.49;55.12
50590;BME280;36547;50.514;30.840;2023-03-23T05:14:14;99797.64;;;13.51;55.03
50590;BME280;36547;50.514;30.840;2023-03-23T05:15:19;99797.53;;;13.53;54.91
50590;BME280;36547;50.514;30.840;2023-03-23T05:16:22;99788.77;;;13.51;54.85
50590;BME280;36547;50.514;30.840;2023-03-23T05:17:24;99795.06;;;13.50;54.78
50590;BME280;36547;50.514;30.840;2023-03-23T05:18:27;99794.21;;;13.49;54.79
50590;BME280;36547;50.514;30.840;2023-03-23T05:19:29;99792.40;;;13.50;54.78
50590;BME280;36547;50.514;30.840;2023-03-23T05:20:31;99790.69;;;13.49;54.75
50590;BME280;36547;50.514;30.840;2023-03-23T05:21:38;99793.36;;;13.49;54.75
50590;BME280;36547;50.514;30.840;2023-03-23T05:22:45;99794.21;;;13.49;54.74
50590;BME280;36547;50.514;30.840;2023-03-23T05:23:43;99795.06;;;13.50;54.75
50590;BME280;36547;50.514;30.840;2023-03-23T05:24:50;99793.45;;;13.47;54.83
50590;BME280;36547;50.514;30.840;2023-03-23T05:25:53;99789.08;;;13.46;54.86
50590;BME280;36547;50.514;30.840;2023-03-23T05:26:55;99792.70;;;13.45;54.96
50590;BME280;36547;50.514;30.840;2023-03-23T05:27:59;99795.48;;;13.43;54.93
50590;BME280;36547;50.514;30.840;2023-03-23T05:29:03;99788.43;;;13.42;55.01
50590;BME280;36547;50.514;30.840;2023-03-23T05:30:13;99800.82;;;13.43;55.00
50590;BME280;36547;50.514;30.840;2023-03-23T05:31:15;99792.09;;;13.41;54.96
50590;BME280;36547;50.514;30.840;2023-03-23T05:32:17;99792.09;;;13.41;55.00
50590;BME280;36547;50.514;30.840;2023-03-23T05:33:20;99794.86;;;13.40;55.02
50590;BME280;36547;50.514;30.840;2023-03-23T05:34:30;99794.01;;;13.39;55.09
50590;BME280;36547;50.514;30.840;2023-03-23T05:35:33;99794.01;;;13.39;55.12
50590;BME280;36547;50.514;30.840;2023-03-23T05:36:35;99785.25;;;13.37;55.18
50590;BME280;36547;50.514;30.840;2023-03-23T05:37:50;99796.98;;;13.35;55.24
50590;BME280;36547;50.514;30.840;2023-03-23T05:38:52;99795.17;;;13.35;55.26
50590;BME280;36547;50.514;30.840;2023-03-23T05:39:54;99796.13;;;13.34;55.36
50590;BME280;36547;50.514;30.840;2023-03-23T05:41:01;99798.90;;;13.33;55.39
50590;BME280;36547;50.514;30.840;2023-03-23T05:42:05;99796.13;;;13.34;55.40
50590;BME280;36547;50.514;30.840;2023-03-23T05:43:10;99804.98;;;13.35;55.43
50590;BME280;36547;50.514;30.840;2023-03-23T05:44:17;99796.33;;;13.31;55.49
50590;BME280;36547;50.514;30.840;2023-03-23T05:45:24;99791.85;;;13.32;55.57
50590;BME280;36547;50.514;30.840;2023-03-23T05:46:27;99807.21;;;13.28;55.67
50590;BME280;36547;50.514;30.840;2023-03-23T05:47:31;99794.00;;;13.27;55.72
50590;BME280;36547;50.514;30.840;2023-03-23T05:48:35;99798.34;;;13.28;55.75
50590;BME280;36547;50.514;30.840;2023-03-23T05:49:37;99798.48;;;13.26;55.86
50590;BME280;36547;50.514;30.840;2023-03-23T05:50:40;99798.48;;;13.26;55.90
50590;BME280;36547;50.514;30.840;2023-03-23T05:51:42;99805.84;;;13.23;55.94
50590;BME280;36547;50.514;30.840;2023-03-23T05:52:44;99809.36;;;13.23;55.99
50590;BME280;36547;50.514;30.840;2023-03-23T05:53:48;99807.64;;;13.22;56.03
50590;BME280;36547;50.514;30.840;2023-03-23T05:54:51;99805.08;;;13.21;56.14
50590;BME280;36547;50.514;30.840;2023-03-23T05:55:57;99803.27;;;13.21;56.14
50590;BME280;36547;50.514;30.840;2023-03-23T05:57:00;99807.64;;;13.22;56.20
50590;BME280;36547;50.514;30.840;2023-03-23T05:58:10;99810.52;;;13.19;56.24
50590;BME280;36547;50.514;30.840;2023-03-23T05:59:14;99807.64;;;13.22;56.20
50590;BME280;36547;50.514;30.840;2023-03-23T06:00:18;99806.69;;;13.23;56.21
50590;BME280;36547;50.514;30.840;2023-03-23T06:01:21;99816.51;;;13.23;56.24
50590;BME280;36547;50.514;30.840;2023-03-23T06:02:23;99813.94;;;13.21;56.37
50590;BME280;36547;50.514;30.840;2023-03-23T06:03:26;99808.50;;;13.23;56.34
50590;BME280;36547;50.514;30.840;2023-03-23T06:04:30;99807.64;;;13.22;56.33